sensor_id;sensor_type;location;lat;lon;timestamp;pressure;altitude;pressure_sealevel;temperature;humidity
73242;BME280;65659;49.234;-2.094;2023-05-10T00:00:51;100392.85;;;16.20;49.87
73242;BME280;65659;49.234;-2.094;2023-05-10T00:03:17;100390.52;;;16.11;49.85
73242;BME280;65659;49.234;-2.094;2023-05-10T00:05:43;100397.07;;;16.10;49.81
73242;BME280;65659;49.234;-2.094;2023-05-10T00:08:08;100389.66;;;16.27;49.70
73242;BME280;65659;49.234;-2.094;2023-05-10T00:10:34;100390.40;;;15.94;49.73
73242;BME280;65659;49.234;-2.094;2023-05-10T00:12:59;100384.54;;;15.84;49.83
73242;BME280;65659;49.234;-2.094;2023-05-10T00:15:25;100383.24;;;16.26;49.77
73242;BME280;65659;49.234;-2.094;2023-05-10T00:17:50;100384.64;;;15.72;49.91
73242;BME280;65659;49.234;-2.094;2023-05-10T00:20:16;100388.81;;;15.64;50.15
73242;BME280;65659;49.234;-2.094;2023-05-10T00:22:41;100391.84;;;15.61;50.24
73242;BME280;65659;49.234;-2.094;2023-05-10T00:25:08;100390.73;;;15.86;49.76
73242;BME280;65659;49.234;-2.094;2023-05-10T00:27:32;100379.68;;;15.82;49.84
73242;BME280;65659;49.234;-2.094;2023-05-10T00:29:58;100377.92;;;15.67;50.07
73242;BME280;65659;49.234;-2.094;2023-05-10T00:32:24;100384.66;;;15.61;50.46
73242;BME280;65659;49.234;-2.094;2023-05-10T00:34:49;100389.79;;;15.66;50.44
73242;BME280;65659;49.234;-2.094;2023-05-10T00:37:15;100396.28;;;15.65;50.05
73242;BME280;65659;49.234;-2.094;2023-05-10T00:39:40;100394.51;;;15.48;50.64
73242;BME280;65659;49.234;-2.094;2023-05-10T00:42:06;100390.83;;;15.97;50.25
73242;BME280;65659;49.234;-2.094;2023-05-10T00:44:32;100398.78;;;16.03;50.12
73242;BME280;65659;49.234;-2.094;2023-05-10T00:46:58;100406.69;;;15.83;49.98
73242;BME280;65659;49.234;-2.094;2023-05-10T00:49:23;100393.39;;;15.86;49.94
73242;BME280;65659;49.234;-2.094;2023-05-10T00:51:49;100401.99;;;15.65;49.79
73242;BME280;65659;49.234;-2.094;2023-05-10T00:54:15;100400.19;;;16.00;49.66
73242;BME280;65659;49.234;-2.094;2023-05-10T00:56:40;100393.09;;;16.08;49.57
73242;BME280;65659;49.234;-2.094;2023-05-10T00:59:06;100408.04;;;15.87;49.98
73242;BME280;65659;49.234;-2.094;2023-05-10T01:01:31;100406.39;;;16.01;49.58
73242;BME280;65659;49.234;-2.094;2023-05-10T01:03:57;100409.03;;;16.26;49.69
73242;BME280;65659;49.234;-2.094;2023-05-10T01:06:22;100407.06;;;16.18;49.75
73242;BME280;65659;49.234;-2.094;2023-05-10T01:08:48;100410.88;;;16.01;49.92
73242;BME280;65659;49.234;-2.094;2023-05-10T01:11:14;100408.32;;;15.78;49.39
73242;BME280;65659;49.234;-2.094;2023-05-10T01:13:42;100403.44;;;16.03;49.51
73242;BME280;65659;49.234;-2.094;2023-05-10T01:16:06;100406.17;;;15.97;49.50
73242;BME280;65659;49.234;-2.094;2023-05-10T01:18:31;100409.12;;;16.01;49.14
73242;BME280;65659;49.234;-2.094;2023-05-10T01:21:02;100402.65;;;15.89;49.01
73242;BME280;65659;49.234;-2.094;2023-05-10T01:23:37;100400.78;;;15.86;49.10
73242;BME280;65659;49.234;-2.094;2023-05-10T01:28:23;100398.76;;;15.90;48.97
73242;BME280;65659;49.234;-2.094;2023-05-10T01:30:47;100404.37;;;15.85;49.01
73242;BME280;65659;49.234;-2.094;2023-05-10T01:33:11;100401.69;;;16.01;48.90
73242;BME280;65659;49.234;-2.094;2023-05-10T01:35:34;100403.78;;;15.80;49.40
73242;BME280;65659;49.234;-2.094;2023-05-10T01:38:02;100409.08;;;16.29;49.18
73242;BME280;65659;49.234;-2.094;2023-05-10T01:40:25;100403.86;;;16.30;49.22
73242;BME280;65659;49.234;-2.094;2023-05-10T01:42:50;100405.54;;;16.26;49.34
73242;BME280;65659;49.234;-2.094;2023-05-10T01:45:20;100406.26;;;16.15;49.65
73242;BME280;65659;49.234;-2.094;2023-05-10T01:47:51;100396.54;;;15.93;49.60
73242;BME280;65659;49.234;-2.094;2023-05-10T01:50:04;100404.29;;;16.02;49.45
73242;BME280;65659;49.234;-2.094;2023-05-10T01:52:33;100400.28;;;15.67;50.02
73242;BME280;65659;49.234;-2.094;2023-05-10T01:54:55;100397.28;;;15.70;50.03
73242;BME280;65659;49.234;-2.094;2023-05-10T01:57:19;100403.25;;;15.97;49.73
73242;BME280;65659;49.234;-2.094;2023-05-10T01:59:45;100397.74;;;15.90;50.03
73242;BME280;65659;49.234;-2.094;2023-05-10T02:02:12;100403.87;;;16.17;49.95
73242;BME280;65659;49.234;-2.094;2023-05-10T02:04:35;100397.44;;;15.91;50.03
73242;BME280;65659;49.234;-2.094;2023-05-10T02:07:01;100402.32;;;16.19;49.84
73242;BME280;65659;49.234;-2.094;2023-05-10T02:09:27;100398.46;;;15.93;49.74
73242;BME280;65659;49.234;-2.094;2023-05-10T02:11:52;100405.20;;;15.97;49.35
73242;BME280;65659;49.234;-2.094;2023-05-10T02:14:19;100397.07;;;16.21;49.35
73242;BME280;65659;49.234;-2.094;2023-05-10T02:16:43;100399.94;;;16.36;49.58
73242;BME280;65659;49.234;-2.094;2023-05-10T02:19:09;100395.80;;;16.19;49.53
73242;BME280;65659;49.234;-2.094;2023-05-10T02:21:35;100401.02;;;16.11;49.78
73242;BME280;65659;49.234;-2.094;2023-05-10T02:24:00;100396.75;;;16.30;49.81
73242;BME280;65659;49.234;-2.094;2023-05-10T02:26:26;100405.28;;;16.10;49.83
73242;BME280;65659;49.234;-2.094;2023-05-10T02:28:52;100399.39;;;16.45;49.71
73242;BME280;65659;49.234;-2.094;2023-05-10T02:31:18;100399.40;;;16.44;49.74
73242;BME280;65659;49.234;-2.094;2023-05-10T02:33:43;100399.55;;;16.24;49.80
73242;BME280;65659;49.234;-2.094;2023-05-10T02:36:09;100407.58;;;16.18;49.99
73242;BME280;65659;49.234;-2.094;2023-05-10T02:38:35;100407.14;;;16.07;50.12
73242;BME280;65659;49.234;-2.094;2023-05-10T02:40:59;100410.96;;;15.96;50.27
73242;BME280;65659;49.234;-2.094;2023-05-10T02:43:24;100417.33;;;16.22;49.80
73242;BME280;65659;49.234;-2.094;2023-05-10T02:45:49;100411.96;;;16.11;49.98
73242;BME280;65659;49.234;-2.094;2023-05-10T02:48:16;100407.28;;;16.19;49.83
73242;BME280;65659;49.234;-2.094;2023-05-10T02:50:43;100414.32;;;16.32;49.56
73242;BME280;65659;49.234;-2.094;2023-05-10T02:53:10;100418.33;;;16.26;49.65
73242;BME280;65659;49.234;-2.094;2023-05-10T02:55:36;100423.12;;;16.16;49.57
73242;BME280;65659;49.234;-2.094;2023-05-10T02:58:00;100422.12;;;16.24;49.54
73242;BME280;65659;49.234;-2.094;2023-05-10T03:00:24;100418.52;;;16.35;49.29
73242;BME280;65659;49.234;-2.094;2023-05-10T03:02:49;100426.41;;;16.55;49.25
73242;BME280;65659;49.234;-2.094;2023-05-10T03:05:15;100416.44;;;16.43;48.92
73242;BME280;65659;49.234;-2.094;2023-05-10T03:07:40;100431.21;;;16.17;49.15
73242;BME280;65659;49.234;-2.094;2023-05-10T03:10:06;100422.31;;;16.20;49.07
73242;BME280;65659;49.234;-2.094;2023-05-10T03:12:41;100423.58;;;16.24;48.90
73242;BME280;65659;49.234;-2.094;2023-05-10T03:15:00;100424.90;;;16.49;48.94
73242;BME280;65659;49.234;-2.094;2023-05-10T03:17:29;100416.77;;;16.02;49.39
73242;BME280;65659;49.234;-2.094;2023-05-10T03:19:53;100419.42;;;16.19;49.21
73242;BME280;65659;49.234;-2.094;2023-05-10T03:22:13;100408.58;;;15.91;49.63
73242;BME280;65659;49.234;-2.094;2023-05-10T03:24:39;100421.51;;;16.40;49.39
73242;BME280;65659;49.234;-2.094;2023-05-10T03:27:04;100422.50;;;16.23;49.67
73242;BME280;65659;49.234;-2.094;2023-05-10T03:29:29;100421.90;;;16.07;49.81
73242;BME280;65659;49.234;-2.094;2023-05-10T03:31:55;100423.34;;;16.19;49.60
73242;BME280;65659;49.234;-2.094;2023-05-10T03:34:23;100415.43;;;16.24;49.50
73242;BME280;65659;49.234;-2.094;2023-05-10T03:36:46;100422.31;;;16.11;49.71
73242;BME280;65659;49.234;-2.094;2023-05-10T03:39:11;100423.84;;;16.17;49.57
73242;BME280;65659;49.234;-2.094;2023-05-10T03:41:36;100428.48;;;16.17;49.96
73242;BME280;65659;49.234;-2.094;2023-05-10T03:44:02;100424.42;;;16.03;49.75
73242;BME280;65659;49.234;-2.094;2023-05-10T03:46:28;100411.65;;;16.07;49.66
73242;BME280;65659;49.234;-2.094;2023-05-10T03:48:53;100422.65;;;16.09;49.78
73242;BME280;65659;49.234;-2.094;2023-05-10T03:51:19;100421.30;;;16.22;49.55
73242;BME280;65659;49.234;-2.094;2023-05-10T03:53:45;100426.46;;;16.10;49.84
73242;BME280;65659;49.234;-2.094;2023-05-10T03:56:11;100420.76;;;15.98;49.70
73242;BME280;65659;49.234;-2.094;2023-05-10T03:58:35;100427.18;;;16.21;49.68
73242;BME280;65659;49.234;-2.094;2023-05-10T04:01:01;100424.01;;;16.20;49.82
73242;BME280;65659;49.234;-2.094;2023-05-10T04:03:27;100424.77;;;16.14;49.76
73242;BME280;65659;49.234;-2.094;2023-05-10T04:05:58;100423.91;;;16.28;49.42
73242;BME280;65659;49.234;-2.094;2023-05-10T04:08:18;100427.94;;;16.13;49.54
73242;BME280;65659;49.234;-2.094;2023-05-10T04:10:43;100422.97;;;16.43;49.30
73242;BME280;65659;49.234;-2.094;2023-05-10T04:13:09;100421.14;;;16.24;49.30
73242;BME280;65659;49.234;-2.094;2023-05-10T04:15:34;100423.29;;;16.08;49.52
73242;BME280;65659;49.234;-2.094;2023-05-10T04:17:59;100432.64;;;16.05;49.96
73242;BME280;65659;49.234;-2.094;2023-05-10T04:20:25;100432.79;;;15.85;49.95
73242;BME280;65659;49.234;-2.094;2023-05-10T04:22:50;100436.25;;;16.11;49.94
73242;BME280;65659;49.234;-2.094;2023-05-10T04:25:16;100435.14;;;16.00;49.84
73242;BME280;65659;49.234;-2.094;2023-05-10T04:27:41;100430.90;;;16.26;49.87
73242;BME280;65659;49.234;-2.094;2023-05-10T04:30:09;100434.97;;;16.10;49.76
73242;BME280;65659;49.234;-2.094;2023-05-10T04:32:33;100433.59;;;16.07;49.83
73242;BME280;65659;49.234;-2.094;2023-05-10T04:34:59;100431.23;;;16.07;49.93
73242;BME280;65659;49.234;-2.094;2023-05-10T04:37:24;100432.52;;;16.08;49.93
73242;BME280;65659;49.234;-2.094;2023-05-10T04:39:49;100436.32;;;16.00;49.93
73242;BME280;65659;49.234;-2.094;2023-05-10T04:42:14;100437.90;;;16.16;49.50
73242;BME280;65659;49.234;-2.094;2023-05-10T04:44:40;100436.42;;;16.36;49.18
73242;BME280;65659;49.234;-2.094;2023-05-10T04:47:06;100435.24;;;15.99;48.94
73242;BME280;65659;49.234;-2.094;2023-05-10T04:49:32;100434.50;;;16.41;48.36
73242;BME280;65659;49.234;-2.094;2023-05-10T04:51:57;100441.41;;;16.34;48.15
73242;BME280;65659;49.234;-2.094;2023-05-10T04:54:22;100443.56;;;16.34;48.23
73242;BME280;65659;49.234;-2.094;2023-05-10T04:56:48;100444.28;;;16.24;48.52
73242;BME280;65659;49.234;-2.094;2023-05-10T04:59:13;100448.55;;;16.27;48.33
73242;BME280;65659;49.234;-2.094;2023-05-10T05:01:39;100449.45;;;16.61;48.27
73242;BME280;65659;49.234;-2.094;2023-05-10T05:04:05;100456.10;;;16.66;48.48
73242;BME280;65659;49.234;-2.094;2023-05-10T05:06:30;100456.56;;;16.69;48.63
73242;BME280;65659;49.234;-2.094;2023-05-10T05:08:55;100459.90;;;16.61;49.05
73242;BME280;65659;49.234;-2.094;2023-05-10T05:11:21;100456.96;;;16.67;49.04
73242;BME280;65659;49.234;-2.094;2023-05-10T05:13:46;100451.53;;;16.48;49.02
73242;BME280;65659;49.234;-2.094;2023-05-10T05:16:12;100455.12;;;16.73;49.04
73242;BME280;65659;49.234;-2.094;2023-05-10T05:18:37;100457.46;;;16.83;48.94
73242;BME280;65659;49.234;-2.094;2023-05-10T05:21:03;100460.89;;;16.88;48.91
73242;BME280;65659;49.234;-2.094;2023-05-10T05:23:29;100461.28;;;16.60;49.01
73242;BME280;65659;49.234;-2.094;2023-05-10T05:25:54;100461.70;;;16.32;49.13
73242;BME280;65659;49.234;-2.094;2023-05-10T05:28:26;100465.50;;;16.85;49.12
73242;BME280;65659;49.234;-2.094;2023-05-10T05:30:45;100470.19;;;16.70;49.15
73242;BME280;65659;49.234;-2.094;2023-05-10T05:33:11;100469.02;;;16.54;48.97
73242;BME280;65659;49.234;-2.094;2023-05-10T05:35:36;100468.97;;;16.68;48.86
73242;BME280;65659;49.234;-2.094;2023-05-10T05:38:01;100473.10;;;16.57;48.87
73242;BME280;65659;49.234;-2.094;2023-05-10T05:40:27;100475.86;;;17.05;48.39
73242;BME280;65659;49.234;-2.094;2023-05-10T05:42:52;100478.79;;;17.37;48.39
73242;BME280;65659;49.234;-2.094;2023-05-10T05:45:18;100476.05;;;16.88;48.24
73242;BME280;65659;49.234;-2.094;2023-05-10T05:47:44;100474.27;;;16.93;47.78
73242;BME280;65659;49.234;-2.094;2023-05-10T05:50:10;100469.19;;;16.80;47.85
73242;BME280;65659;49.234;-2.094;2023-05-10T05:52:35;100477.52;;;16.62;47.59
73242;BME280;65659;49.234;-2.094;2023-05-10T05:55:00;100477.07;;;16.73;47.69
73242;BME280;65659;49.234;-2.094;2023-05-10T05:57:26;100479.97;;;16.86;47.61
73242;BME280;65659;49.234;-2.094;2023-05-10T05:59:52;100472.54;;;16.94;47.62
73242;BME280;65659;49.234;-2.094;2023-05-10T06:02:18;100483.18;;;17.11;47.41
73242;BME280;65659;49.234;-2.094;2023-05-10T06:04:43;100483.99;;;17.22;47.31
73242;BME280;65659;49.234;-2.094;2023-05-10T06:07:09;100488.01;;;17.30;47.28
73242;BME280;65659;49.234;-2.094;2023-05-10T06:09:34;100483.71;;;17.35;47.44
73242;BME280;65659;49.234;-2.094;2023-05-10T06:12:05;100486.50;;;17.41;47.50
73242;BME280;65659;49.234;-2.094;2023-05-10T06:14:25;100481.90;;;17.24;47.55
73242;BME280;65659;49.234;-2.094;2023-05-10T06:16:51;100487.35;;;17.48;47.58
73242;BME280;65659;49.234;-2.094;2023-05-10T06:19:16;100488.44;;;17.32;47.54
73242;BME280;65659;49.234;-2.094;2023-05-10T06:21:41;100492.07;;;17.23;47.70
73242;BME280;65659;49.234;-2.094;2023-05-10T06:24:12;100488.45;;;17.32;47.59
73242;BME280;65659;49.234;-2.094;2023-05-10T06:26:32;100494.19;;;17.47;47.52
73242;BME280;65659;49.234;-2.094;2023-05-10T06:28:58;100499.75;;;17.29;47.75
73242;BME280;65659;49.234;-2.094;2023-05-10T06:31:23;100505.46;;;17.28;47.35
73242;BME280;65659;49.234;-2.094;2023-05-10T06:33:48;100502.50;;;17.38;47.29
73242;BME280;65659;49.234;-2.094;2023-05-10T06:36:13;100502.68;;;17.60;47.20
73242;BME280;65659;49.234;-2.094;2023-05-10T06:38:40;100504.73;;;17.43;47.13
73242;BME280;65659;49.234;-2.094;2023-05-10T06:41:05;100503.28;;;17.89;46.88
73242;BME280;65659;49.234;-2.094;2023-05-10T06:43:31;100511.71;;;17.20;46.47
73242;BME280;65659;49.234;-2.094;2023-05-10T06:45:56;100516.05;;;17.73;46.36
73242;BME280;65659;49.234;-2.094;2023-05-10T06:48:22;100515.12;;;17.38;45.98
73242;BME280;65659;49.234;-2.094;2023-05-10T06:50:48;100518.01;;;17.82;45.94
73242;BME280;65659;49.234;-2.094;2023-05-10T06:53:13;100519.16;;;17.32;46.11
73242;BME280;65659;49.234;-2.094;2023-05-10T06:55:38;100516.18;;;17.56;45.68
73242;BME280;65659;49.234;-2.094;2023-05-10T06:58:04;100514.95;;;17.69;45.40
73242;BME280;65659;49.234;-2.094;2023-05-10T07:00:29;100524.60;;;17.81;45.17
73242;BME280;65659;49.234;-2.094;2023-05-10T07:02:54;100518.52;;;17.93;44.96
73242;BME280;65659;49.234;-2.094;2023-05-10T07:05:20;100522.79;;;17.83;44.59
73242;BME280;65659;49.234;-2.094;2023-05-10T07:07:46;100527.68;;;17.83;44.64
73242;BME280;65659;49.234;-2.094;2023-05-10T07:10:11;100528.55;;;17.57;44.77
73242;BME280;65659;49.234;-2.094;2023-05-10T07:12:37;100527.02;;;17.99;44.59
73242;BME280;65659;49.234;-2.094;2023-05-10T07:15:03;100532.80;;;18.17;44.57
73242;BME280;65659;49.234;-2.094;2023-05-10T07:17:29;100528.86;;;18.08;44.50
73242;BME280;65659;49.234;-2.094;2023-05-10T07:19:54;100532.13;;;18.38;44.31
73242;BME280;65659;49.234;-2.094;2023-05-10T07:22:19;100531.20;;;18.09;44.36
73242;BME280;65659;49.234;-2.094;2023-05-10T07:24:45;100529.58;;;18.09;44.07
73242;BME280;65659;49.234;-2.094;2023-05-10T07:27:11;100536.96;;;18.40;43.61
73242;BME280;65659;49.234;-2.094;2023-05-10T07:29:37;100538.96;;;18.38;43.05
73242;BME280;65659;49.234;-2.094;2023-05-10T07:32:03;100546.45;;;18.40;42.83
73242;BME280;65659;49.234;-2.094;2023-05-10T07:34:27;100534.75;;;18.65;42.40
73242;BME280;65659;49.234;-2.094;2023-05-10T07:36:53;100538.45;;;18.58;42.78
73242;BME280;65659;49.234;-2.094;2023-05-10T07:39:19;100541.89;;;18.62;42.58
73242;BME280;65659;49.234;-2.094;2023-05-10T07:41:44;100537.52;;;18.35;42.20
73242;BME280;65659;49.234;-2.094;2023-05-10T07:44:11;100528.99;;;18.67;41.99
73242;BME280;65659;49.234;-2.094;2023-05-10T07:46:35;100534.79;;;18.60;42.22
73242;BME280;65659;49.234;-2.094;2023-05-10T07:49:01;100540.82;;;18.44;42.25
73242;BME280;65659;49.234;-2.094;2023-05-10T07:51:26;100531.97;;;18.28;42.08
73242;BME280;65659;49.234;-2.094;2023-05-10T07:53:51;100529.43;;;18.77;41.97
73242;BME280;65659;49.234;-2.094;2023-05-10T07:56:23;100534.11;;;18.36;42.03
73242;BME280;65659;49.234;-2.094;2023-05-10T07:58:42;100530.24;;;18.53;41.68
73242;BME280;65659;49.234;-2.094;2023-05-10T08:01:08;100511.89;;;18.36;41.82
73242;BME280;65659;49.234;-2.094;2023-05-10T08:03:33;100530.71;;;18.79;41.05
73242;BME280;65659;49.234;-2.094;2023-05-10T08:05:59;100535.17;;;18.30;41.35
73242;BME280;65659;49.234;-2.094;2023-05-10T08:08:24;100533.12;;;18.41;41.12
73242;BME280;65659;49.234;-2.094;2023-05-10T08:10:50;100527.88;;;18.61;41.14
73242;BME280;65659;49.234;-2.094;2023-05-10T08:13:15;100538.38;;;18.61;41.08
73242;BME280;65659;49.234;-2.094;2023-05-10T08:15:40;100525.23;;;18.56;41.16
73242;BME280;65659;49.234;-2.094;2023-05-10T08:18:06;100530.27;;;18.60;41.08
73242;BME280;65659;49.234;-2.094;2023-05-10T08:20:31;100528.11;;;18.63;41.14
73242;BME280;65659;49.234;-2.094;2023-05-10T08:22:57;100535.02;;;19.09;41.30
73242;BME280;65659;49.234;-2.094;2023-05-10T08:25:24;100534.38;;;18.77;41.21
73242;BME280;65659;49.234;-2.094;2023-05-10T08:27:49;100535.18;;;18.77;41.00
73242;BME280;65659;49.234;-2.094;2023-05-10T08:30:15;100541.56;;;18.97;40.95
73242;BME280;65659;49.234;-2.094;2023-05-10T08:32:40;100544.03;;;18.75;40.98
73242;BME280;65659;49.234;-2.094;2023-05-10T08:35:06;100534.23;;;18.94;40.83
73242;BME280;65659;49.234;-2.094;2023-05-10T08:37:31;100533.40;;;18.78;40.90
73242;BME280;65659;49.234;-2.094;2023-05-10T08:39:57;100536.54;;;18.80;40.95
73242;BME280;65659;49.234;-2.094;2023-05-10T08:42:23;100535.00;;;18.83;40.87
73242;BME280;65659;49.234;-2.094;2023-05-10T08:44:49;100537.76;;;18.82;40.70
73242;BME280;65659;49.234;-2.094;2023-05-10T08:47:16;100547.08;;;19.26;40.58
73242;BME280;65659;49.234;-2.094;2023-05-10T08:49:39;100549.15;;;19.08;40.44
73242;BME280;65659;49.234;-2.094;2023-05-10T08:52:06;100553.36;;;18.83;40.31
73242;BME280;65659;49.234;-2.094;2023-05-10T08:54:32;100544.12;;;19.17;40.26
73242;BME280;65659;49.234;-2.094;2023-05-10T08:56:56;100550.43;;;19.01;40.03
73242;BME280;65659;49.234;-2.094;2023-05-10T08:59:22;100555.35;;;19.19;40.15
73242;BME280;65659;49.234;-2.094;2023-05-10T09:01:47;100549.27;;;19.25;39.88
73242;BME280;65659;49.234;-2.094;2023-05-10T09:04:13;100561.80;;;19.40;40.03
73242;BME280;65659;49.234;-2.094;2023-05-10T09:06:38;100557.79;;;19.28;39.71
73242;BME280;65659;49.234;-2.094;2023-05-10T09:09:04;100564.12;;;19.46;39.65
73242;BME280;65659;49.234;-2.094;2023-05-10T09:11:30;100558.46;;;19.51;39.38
73242;BME280;65659;49.234;-2.094;2023-05-10T09:13:55;100559.83;;;19.51;39.16
73242;BME280;65659;49.234;-2.094;2023-05-10T09:16:20;100557.82;;;19.41;38.84
73242;BME280;65659;49.234;-2.094;2023-05-10T09:18:46;100557.98;;;20.01;38.96
73242;BME280;65659;49.234;-2.094;2023-05-10T09:21:14;100564.67;;;19.62;38.89
73242;BME280;65659;49.234;-2.094;2023-05-10T09:23:37;100563.97;;;19.54;38.71
73242;BME280;65659;49.234;-2.094;2023-05-10T09:26:05;100575.76;;;19.62;38.49
73242;BME280;65659;49.234;-2.094;2023-05-10T09:28:32;100574.85;;;19.96;38.17
73242;BME280;65659;49.234;-2.094;2023-05-10T09:30:54;100573.09;;;19.48;38.64
73242;BME280;65659;49.234;-2.094;2023-05-10T09:33:20;100582.16;;;19.56;38.56
73242;BME280;65659;49.234;-2.094;2023-05-10T09:35:45;100578.50;;;19.76;38.64
73242;BME280;65659;49.234;-2.094;2023-05-10T09:38:11;100585.74;;;19.90;38.44
73242;BME280;65659;49.234;-2.094;2023-05-10T09:40:37;100589.53;;;19.88;38.52
73242;BME280;65659;49.234;-2.094;2023-05-10T09:43:04;100601.99;;;19.97;38.57
73242;BME280;65659;49.234;-2.094;2023-05-10T09:45:30;100596.10;;;19.57;38.12
73242;BME280;65659;49.234;-2.094;2023-05-10T09:47:54;100600.52;;;19.47;38.15
73242;BME280;65659;49.234;-2.094;2023-05-10T09:50:20;100595.19;;;19.66;38.01
73242;BME280;65659;49.234;-2.094;2023-05-10T09:52:49;100602.58;;;19.87;37.89
73242;BME280;65659;49.234;-2.094;2023-05-10T09:55:13;100604.03;;;19.94;38.22
73242;BME280;65659;49.234;-2.094;2023-05-10T09:57:36;100603.33;;;19.90;37.56
73242;BME280;65659;49.234;-2.094;2023-05-10T10:00:03;100608.11;;;19.84;37.64
73242;BME280;65659;49.234;-2.094;2023-05-10T10:02:29;100602.10;;;19.89;37.39
73242;BME280;65659;49.234;-2.094;2023-05-10T10:04:53;100601.45;;;20.09;36.97
73242;BME280;65659;49.234;-2.094;2023-05-10T10:07:24;100602.02;;;20.05;36.68
73242;BME280;65659;49.234;-2.094;2023-05-10T10:09:45;100612.87;;;19.99;36.77
73242;BME280;65659;49.234;-2.094;2023-05-10T10:12:11;100614.12;;;19.81;37.13
73242;BME280;65659;49.234;-2.094;2023-05-10T10:14:36;100604.41;;;19.79;36.73
73242;BME280;65659;49.234;-2.094;2023-05-10T10:17:03;100609.64;;;20.02;37.15
73242;BME280;65659;49.234;-2.094;2023-05-10T10:19:28;100610.11;;;19.87;36.98
73242;BME280;65659;49.234;-2.094;2023-05-10T10:21:53;100602.91;;;19.75;37.01
73242;BME280;65659;49.234;-2.094;2023-05-10T10:24:19;100600.39;;;19.78;36.97
73242;BME280;65659;49.234;-2.094;2023-05-10T10:26:45;100599.30;;;20.05;37.07
73242;BME280;65659;49.234;-2.094;2023-05-10T10:29:20;100602.16;;;20.27;37.00
73242;BME280;65659;49.234;-2.094;2023-05-10T10:31:44;100599.41;;;19.89;36.79
73242;BME280;65659;49.234;-2.094;2023-05-10T10:34:05;100599.51;;;20.35;36.89
73242;BME280;65659;49.234;-2.094;2023-05-10T10:36:27;100608.19;;;20.29;36.75
73242;BME280;65659;49.234;-2.094;2023-05-10T10:41:27;100602.64;;;20.83;35.78
73242;BME280;65659;49.234;-2.094;2023-05-10T10:43:44;100602.63;;;20.72;35.88
73242;BME280;65659;49.234;-2.094;2023-05-10T10:46:12;100601.93;;;21.11;36.11
73242;BME280;65659;49.234;-2.094;2023-05-10T10:48:41;100602.38;;;20.80;36.36
73242;BME280;65659;49.234;-2.094;2023-05-10T10:51:11;100600.54;;;20.43;36.64
73242;BME280;65659;49.234;-2.094;2023-05-10T10:53:30;100596.73;;;20.87;36.68
73242;BME280;65659;49.234;-2.094;2023-05-10T10:56:09;100601.76;;;20.66;36.79
73242;BME280;65659;49.234;-2.094;2023-05-10T10:58:29;100591.75;;;20.69;36.99
73242;BME280;65659;49.234;-2.094;2023-05-10T11:00:49;100596.78;;;20.71;37.24
73242;BME280;65659;49.234;-2.094;2023-05-10T11:03:19;100596.18;;;20.19;37.37
73242;BME280;65659;49.234;-2.094;2023-05-10T11:05:45;100597.20;;;20.40;37.88
73242;BME280;65659;49.234;-2.094;2023-05-10T11:08:09;100598.09;;;20.67;38.13
73242;BME280;65659;49.234;-2.094;2023-05-10T11:10:27;100596.53;;;20.37;38.05
73242;BME280;65659;49.234;-2.094;2023-05-10T11:12:59;100594.04;;;20.23;38.19
73242;BME280;65659;49.234;-2.094;2023-05-10T11:17:45;100600.25;;;20.31;38.31
73242;BME280;65659;49.234;-2.094;2023-05-10T11:20:17;100595.90;;;20.38;38.32
73242;BME280;65659;49.234;-2.094;2023-05-10T11:25:04;100596.03;;;19.82;38.33
73242;BME280;65659;49.234;-2.094;2023-05-10T11:27:27;100598.51;;;19.95;38.32
73242;BME280;65659;49.234;-2.094;2023-05-10T11:30:04;100605.62;;;20.47;38.71
73242;BME280;65659;49.234;-2.094;2023-05-10T11:32:30;100608.20;;;19.98;38.98
73242;BME280;65659;49.234;-2.094;2023-05-10T11:34:51;100598.90;;;20.12;38.67
73242;BME280;65659;49.234;-2.094;2023-05-10T11:37:18;100599.51;;;20.12;38.41
73242;BME280;65659;49.234;-2.094;2023-05-10T11:39:45;100598.14;;;20.62;38.71
73242;BME280;65659;49.234;-2.094;2023-05-10T11:42:01;100599.36;;;20.02;38.18
73242;BME280;65659;49.234;-2.094;2023-05-10T11:44:30;100597.33;;;19.94;37.50
73242;BME280;65659;49.234;-2.094;2023-05-10T11:47:03;100597.79;;;20.49;37.51
73242;BME280;65659;49.234;-2.094;2023-05-10T11:49:16;100614.91;;;20.01;37.64
73242;BME280;65659;49.234;-2.094;2023-05-10T11:51:48;100600.99;;;20.08;37.63
73242;BME280;65659;49.234;-2.094;2023-05-10T11:54:10;100598.63;;;20.11;37.60
73242;BME280;65659;49.234;-2.094;2023-05-10T11:56:39;100601.53;;;20.31;37.49
73242;BME280;65659;49.234;-2.094;2023-05-10T11:59:02;100598.00;;;19.87;37.45
73242;BME280;65659;49.234;-2.094;2023-05-10T12:01:23;100598.19;;;20.05;37.07
73242;BME280;65659;49.234;-2.094;2023-05-10T12:03:57;100598.21;;;20.41;37.06
73242;BME280;65659;49.234;-2.094;2023-05-10T12:06:21;100597.66;;;20.42;36.70
73242;BME280;65659;49.234;-2.094;2023-05-10T12:08:47;100593.83;;;20.50;36.72
73242;BME280;65659;49.234;-2.094;2023-05-10T12:11:15;100600.77;;;20.14;36.67
73242;BME280;65659;49.234;-2.094;2023-05-10T12:13:53;100600.30;;;20.20;36.38
73242;BME280;65659;49.234;-2.094;2023-05-10T12:15:59;100598.32;;;20.56;36.46
73242;BME280;65659;49.234;-2.094;2023-05-10T12:18:25;100596.12;;;20.26;36.41
73242;BME280;65659;49.234;-2.094;2023-05-10T12:21:02;100592.74;;;20.33;36.53
73242;BME280;65659;49.234;-2.094;2023-05-10T12:23:19;100599.43;;;20.55;37.16
73242;BME280;65659;49.234;-2.094;2023-05-10T12:25:48;100598.94;;;20.73;37.12
73242;BME280;65659;49.234;-2.094;2023-05-10T12:28:21;100604.43;;;20.30;36.78
73242;BME280;65659;49.234;-2.094;2023-05-10T12:30:36;100599.45;;;20.79;36.73
73242;BME280;65659;49.234;-2.094;2023-05-10T12:33:01;100604.31;;;20.47;36.43
73242;BME280;65659;49.234;-2.094;2023-05-10T12:37:49;100607.52;;;20.58;36.05
73242;BME280;65659;49.234;-2.094;2023-05-10T12:40:24;100600.88;;;20.69;36.41
73242;BME280;65659;49.234;-2.094;2023-05-10T12:42:43;100611.82;;;20.76;36.40